createdAt,value
2019-01-12T00:00:38.061Z,0
2019-01-12T00:01:48.249Z,0
2019-01-12T00:02:58.365Z,0
2019-01-12T00:04:08.488Z,0
2019-01-12T00:05:18.601Z,0
2019-01-12T00:06:28.753Z,0
2019-01-12T00:07:38.611Z,0
2019-01-12T00:08:48.725Z,0
2019-01-12T00:09:59.049Z,0
2019-01-12T00:11:09.190Z,0
2019-01-12T00:12:19.309Z,0
2019-01-12T00:13:29.420Z,0
2019-01-12T00:14:39.534Z,0
2019-01-12T00:15:49.668Z,0
2019-01-12T00:16:59.784Z,0
2019-01-12T00:18:09.924Z,0
2019-01-12T00:19:20.044Z,0
2019-01-12T00:20:30.158Z,0
2019-01-12T00:21:40.296Z,0
2019-01-12T00:22:49.902Z,0
2019-01-12T00:24:00.013Z,0
2019-01-12T00:25:10.134Z,0
2019-01-12T00:26:20.253Z,0
2019-01-12T00:27:30.379Z,0
2019-01-12T00:28:40.472Z,0
2019-01-12T00:29:50.600Z,0
2019-01-12T00:31:00.711Z,0
2019-01-12T00:32:10.831Z,0
2019-01-12T00:33:20.953Z,0
2019-01-12T00:34:31.075Z,0
2019-01-12T00:35:40.857Z,0
2019-01-12T00:36:50.990Z,0
2019-01-12T00:38:01.140Z,0
2019-01-12T00:39:11.256Z,0
2019-01-12T00:40:21.127Z,0
2019-01-12T00:41:31.228Z,0
2019-01-12T00:42:41.340Z,0
2019-01-12T00:43:51.447Z,0
2019-01-12T00:45:01.557Z,0
2019-01-12T00:46:11.400Z,0
2019-01-12T00:47:21.492Z,0
2019-01-12T00:48:31.677Z,0
2019-01-12T00:49:41.546Z,0
2019-01-12T00:50:51.649Z,0
2019-01-12T00:52:01.760Z,0
2019-01-12T00:53:11.864Z,0
2019-01-12T00:54:21.967Z,0
2019-01-12T00:55:32.082Z,0
2019-01-12T00:56:42.198Z,0
2019-01-12T00:57:52.328Z,0
2019-01-12T00:59:02.448Z,0
2019-01-12T01:00:12.326Z,0
2019-01-12T01:01:22.453Z,0
2019-01-12T01:02:32.569Z,0
2019-01-12T01:03:42.692Z,0
2019-01-12T01:04:52.814Z,0
2019-01-12T01:06:02.943Z,0
2019-01-12T01:07:13.039Z,0
2019-01-12T01:08:23.142Z,0
2019-01-12T01:09:33.256Z,0
2019-01-12T01:10:43.364Z,0
2019-01-12T01:11:53.475Z,0
2019-01-12T01:13:03.819Z,0
2019-01-12T01:14:13.938Z,0
2019-01-12T01:15:24.043Z,0
2019-01-12T01:16:34.180Z,0
2019-01-12T01:17:44.290Z,0
2019-01-12T01:18:54.402Z,0
2019-01-12T01:20:04.254Z,0
2019-01-12T01:21:14.386Z,0
2019-01-12T01:22:24.499Z,0
2019-01-12T01:23:34.619Z,0
2019-01-12T01:24:50.534Z,0
2019-01-12T01:26:00.662Z,0
2019-01-12T01:27:10.768Z,0
2019-01-12T01:28:20.614Z,0
2019-01-12T01:29:30.708Z,0
2019-01-12T01:30:40.813Z,0
2019-01-12T01:31:50.942Z,0
2019-01-12T01:33:01.295Z,0
2019-01-12T01:34:11.445Z,0
2019-01-12T01:35:21.571Z,0
2019-01-12T01:36:31.699Z,0
2019-01-12T01:37:41.803Z,0
2019-01-12T01:38:51.904Z,0
2019-01-12T01:40:02.110Z,0
2019-01-12T01:41:12.213Z,0
2019-01-12T01:42:22.311Z,0
2019-01-12T01:43:31.926Z,0
2019-01-12T01:44:42.034Z,0
2019-01-12T01:45:52.215Z,0
2019-01-12T01:47:02.347Z,0
2019-01-12T01:48:12.472Z,0
2019-01-12T01:49:22.577Z,0
2019-01-12T01:50:32.738Z,0
2019-01-12T01:51:42.859Z,0
2019-01-12T01:52:53.336Z,0
2019-01-12T01:54:03.083Z,0
2019-01-12T01:55:13.210Z,0
2019-01-12T01:56:23.069Z,0
2019-01-12T01:57:33.176Z,0
2019-01-12T01:58:43.296Z,0
2019-01-12T01:59:53.418Z,0
2019-01-12T02:01:03.517Z,0
2019-01-12T02:02:13.630Z,0
2019-01-12T02:03:23.761Z,0
2019-01-12T02:04:33.871Z,0
2019-01-12T02:05:44.018Z,0
2019-01-12T02:06:54.118Z,0
2019-01-12T02:08:04.235Z,0
2019-01-12T02:09:14.526Z,0
2019-01-12T02:10:24.658Z,0
2019-01-12T02:11:34.766Z,0
2019-01-12T02:12:44.870Z,0
2019-01-12T02:13:54.971Z,0
2019-01-12T02:15:05.081Z,0
2019-01-12T02:16:15.390Z,0
2019-01-12T02:17:25.511Z,0
2019-01-12T02:18:35.622Z,0
2019-01-12T02:19:45.788Z,0
2019-01-12T02:20:55.904Z,0
2019-01-12T02:22:06.038Z,0
2019-01-12T02:23:15.892Z,0
2019-01-12T02:24:25.992Z,0
2019-01-12T02:25:36.164Z,0
2019-01-12T02:26:46.286Z,0
2019-01-12T02:27:56.385Z,0
2019-01-12T02:29:06.503Z,0
2019-01-12T02:30:16.634Z,0
2019-01-12T02:31:26.752Z,0
2019-01-12T02:32:36.877Z,0
2019-01-12T02:33:46.993Z,0
2019-01-12T02:34:57.120Z,0
2019-01-12T02:36:07.269Z,0
2019-01-12T02:37:17.382Z,0
2019-01-12T02:38:27.536Z,0
2019-01-12T02:39:37.395Z,0
2019-01-12T02:40:47.546Z,0
2019-01-12T02:41:57.671Z,0
2019-01-12T02:43:07.783Z,0
2019-01-12T02:44:17.882Z,0
2019-01-12T02:45:28.011Z,0
2019-01-12T02:46:38.118Z,0
2019-01-12T02:47:48.218Z,0
2019-01-12T02:48:59.359Z,0
2019-01-12T02:50:09.209Z,0
2019-01-12T02:51:19.302Z,0
2019-01-12T02:52:29.420Z,0
2019-01-12T02:53:39.540Z,0
2019-01-12T02:54:49.660Z,0
2019-01-12T02:55:59.825Z,0
2019-01-12T02:57:09.930Z,0
2019-01-12T02:58:20.870Z,0
2019-01-12T02:59:30.968Z,0
2019-01-12T03:00:41.074Z,0
2019-01-12T03:01:51.192Z,0
2019-01-12T03:03:01.324Z,0
2019-01-12T03:04:11.443Z,0
2019-01-12T03:05:21.547Z,0
2019-01-12T03:06:31.676Z,0
2019-01-12T03:07:41.478Z,0
2019-01-12T03:08:51.586Z,0
2019-01-12T03:10:01.708Z,0
2019-01-12T03:11:11.824Z,0
2019-01-12T03:12:21.935Z,0
2019-01-12T03:13:32.055Z,0
2019-01-12T03:14:42.166Z,0
2019-01-12T03:15:52.027Z,0
2019-01-12T03:17:02.144Z,0
2019-01-12T03:18:12.251Z,0
2019-01-12T03:19:22.365Z,0
2019-01-12T03:20:32.110Z,0
2019-01-12T03:21:42.234Z,0
2019-01-12T03:22:52.429Z,0
2019-01-12T03:24:02.537Z,0
2019-01-12T03:25:20.314Z,0
2019-01-12T03:26:30.434Z,0
2019-01-12T03:27:40.534Z,0
2019-01-12T03:28:50.434Z,0
2019-01-12T03:30:00.564Z,0
2019-01-12T03:31:10.713Z,0
2019-01-12T03:32:20.867Z,0
2019-01-12T03:33:31.066Z,0
2019-01-12T03:34:41.168Z,0
2019-01-12T03:35:51.279Z,0
2019-01-12T03:37:01.400Z,0
2019-01-12T03:38:11.503Z,0
2019-01-12T03:39:21.652Z,0
2019-01-12T03:40:31.760Z,0
2019-01-12T03:41:41.875Z,0
2019-01-12T03:42:51.998Z,0
2019-01-12T03:44:02.100Z,0
2019-01-12T03:45:12.211Z,0
2019-01-12T03:46:22.057Z,0
2019-01-12T03:47:32.163Z,0
2019-01-12T03:48:42.270Z,0
2019-01-12T03:49:52.395Z,0
2019-01-12T03:51:02.253Z,0
2019-01-12T03:52:12.365Z,0
2019-01-12T03:53:22.499Z,0
2019-01-12T03:54:32.352Z,0
2019-01-12T03:55:42.453Z,0
2019-01-12T03:56:52.555Z,0
2019-01-12T03:58:02.663Z,0
2019-01-12T03:59:12.780Z,0
2019-01-12T04:00:22.649Z,0
2019-01-12T04:01:32.749Z,0
2019-01-12T04:02:42.843Z,0
2019-01-12T04:03:52.947Z,0
2019-01-12T04:05:03.041Z,0
2019-01-12T04:06:13.143Z,0
2019-01-12T04:07:23.250Z,0
2019-01-12T04:08:33.380Z,0
2019-01-12T04:09:43.249Z,0
2019-01-12T04:10:53.576Z,0
2019-01-12T04:12:03.737Z,0
2019-01-12T04:13:13.837Z,0
2019-01-12T04:14:23.962Z,0
2019-01-12T04:15:34.070Z,0
2019-01-12T04:16:44.177Z,0
2019-01-12T04:17:54.278Z,0
2019-01-12T04:19:04.408Z,0
2019-01-12T04:20:14.524Z,0
2019-01-12T04:21:24.641Z,0
2019-01-12T04:22:34.748Z,0
2019-01-12T04:23:44.869Z,0
2019-01-12T04:24:54.977Z,0
2019-01-12T04:26:05.086Z,0
2019-01-12T04:27:15.186Z,0
2019-01-12T04:28:25.312Z,0
2019-01-12T04:29:35.426Z,0
2019-01-12T04:30:45.269Z,0
2019-01-12T04:31:55.391Z,0
2019-01-12T04:33:05.508Z,0
2019-01-12T04:34:15.618Z,0
2019-01-12T04:35:25.720Z,0
2019-01-12T04:36:35.840Z,0
2019-01-12T04:37:45.963Z,0
2019-01-12T04:38:56.068Z,0
2019-01-12T04:40:06.181Z,0
2019-01-12T04:41:16.317Z,0
2019-01-12T04:42:26.440Z,0
2019-01-12T04:43:36.554Z,0
2019-01-12T04:44:46.666Z,0
2019-01-12T04:45:56.774Z,0
2019-01-12T04:47:06.910Z,0
2019-01-12T04:48:17.124Z,0
2019-01-12T04:49:27.545Z,0
2019-01-12T04:50:37.658Z,0
2019-01-12T04:51:47.776Z,0
2019-01-12T04:52:57.890Z,0
2019-01-12T04:54:08.990Z,0
2019-01-12T04:55:18.854Z,0
2019-01-12T04:56:28.986Z,0
2019-01-12T04:57:39.197Z,0
2019-01-12T04:58:49.293Z,0
2019-01-12T04:59:59.430Z,0
2019-01-12T05:01:09.553Z,0
2019-01-12T05:02:19.668Z,0
2019-01-12T05:03:29.762Z,0
2019-01-12T05:04:39.906Z,0
2019-01-12T05:05:50.041Z,0
2019-01-12T05:07:00.156Z,0
2019-01-12T05:08:10.287Z,0
2019-01-12T05:09:20.394Z,0
2019-01-12T05:10:30.487Z,0
2019-01-12T05:11:40.604Z,0
2019-01-12T05:12:50.712Z,0
2019-01-12T05:14:00.808Z,0
2019-01-12T05:15:10.935Z,0
2019-01-12T05:16:21.033Z,0
2019-01-12T05:17:31.183Z,0
2019-01-12T05:18:41.710Z,0
2019-01-12T05:19:51.559Z,0
2019-01-12T05:21:01.665Z,0
2019-01-12T05:22:11.762Z,0
2019-01-12T05:23:21.865Z,0
2019-01-12T05:24:31.982Z,0
2019-01-12T05:25:48.692Z,0
2019-01-12T05:26:59.046Z,0
2019-01-12T05:28:09.170Z,0
2019-01-12T05:29:19.285Z,0
2019-01-12T05:30:29.397Z,0
2019-01-12T05:31:39.539Z,0
2019-01-12T05:32:49.643Z,0
2019-01-12T05:33:59.763Z,0
2019-01-12T05:35:09.887Z,0
2019-01-12T05:36:19.981Z,0
2019-01-12T05:37:30.089Z,0
2019-01-12T05:38:40.189Z,0
2019-01-12T05:39:50.294Z,0
2019-01-12T05:41:00.411Z,0
2019-01-12T05:42:10.341Z,0
2019-01-12T05:43:20.593Z,0
2019-01-12T05:44:30.708Z,0
2019-01-12T05:45:40.813Z,0
2019-01-12T05:46:50.929Z,0
2019-01-12T05:48:00.788Z,0
2019-01-12T05:49:10.900Z,0
2019-01-12T05:50:21.024Z,0
2019-01-12T05:51:31.146Z,0
2019-01-12T05:52:41.263Z,0
2019-01-12T05:53:51.362Z,0
2019-01-12T05:55:01.482Z,0
2019-01-12T05:56:11.606Z,0
2019-01-12T05:57:21.748Z,0
2019-01-12T05:58:31.864Z,0
2019-01-12T05:59:41.958Z,0
2019-01-12T06:00:52.063Z,0
2019-01-12T06:02:02.169Z,0
2019-01-12T06:03:12.282Z,0
2019-01-12T06:04:22.376Z,0
2019-01-12T06:05:32.487Z,0
2019-01-12T06:06:42.590Z,0
2019-01-12T06:07:52.703Z,0
2019-01-12T06:09:02.821Z,0
2019-01-12T06:10:12.925Z,0
2019-01-12T06:11:23.024Z,0
2019-01-12T06:12:33.184Z,0
2019-01-12T06:13:43.398Z,0
2019-01-12T06:14:53.510Z,0
2019-01-12T06:16:03.612Z,0
2019-01-12T06:17:13.719Z,0
2019-01-12T06:18:23.584Z,0
2019-01-12T06:19:33.686Z,0
2019-01-12T06:20:43.789Z,0
2019-01-12T06:21:53.886Z,0
2019-01-12T06:23:04.199Z,0
2019-01-12T06:24:14.323Z,0
2019-01-12T06:25:24.465Z,0
2019-01-12T06:26:34.588Z,0
2019-01-12T06:27:44.708Z,0
2019-01-12T06:28:54.844Z,0
2019-01-12T06:30:06.094Z,0
2019-01-12T06:31:16.415Z,0
2019-01-12T06:32:26.521Z,0
2019-01-12T06:33:36.640Z,0
2019-01-12T06:34:46.755Z,0
2019-01-12T06:35:56.880Z,0
2019-01-12T06:37:06.991Z,0
2019-01-12T06:38:17.156Z,0
2019-01-12T06:39:27.312Z,0
2019-01-12T06:40:37.434Z,0
2019-01-12T06:41:47.582Z,0
2019-01-12T06:42:57.696Z,0
2019-01-12T06:44:07.818Z,0
2019-01-12T06:45:17.702Z,0
2019-01-12T06:46:27.814Z,0
2019-01-12T06:47:37.926Z,4
2019-01-12T06:48:48.050Z,4
2019-01-12T06:49:58.167Z,0
2019-01-12T06:51:08.279Z,4
2019-01-12T06:52:18.371Z,4
2019-01-12T06:53:28.469Z,8
2019-01-12T06:54:38.570Z,8
2019-01-12T06:55:48.749Z,12
2019-01-12T06:56:58.858Z,12
2019-01-12T06:58:08.959Z,16
2019-01-12T06:59:18.718Z,20
2019-01-12T07:00:28.835Z,16
2019-01-12T07:01:38.946Z,16
2019-01-12T07:02:49.073Z,16
2019-01-12T07:03:59.188Z,24
2019-01-12T07:05:09.293Z,28
2019-01-12T07:06:19.397Z,28
2019-01-12T07:07:29.504Z,32
2019-01-12T07:08:39.370Z,44
2019-01-12T07:09:49.215Z,52
2019-01-12T07:10:59.318Z,52
2019-01-12T07:12:09.414Z,52
2019-01-12T07:13:19.547Z,52
2019-01-12T07:14:29.729Z,52
2019-01-12T07:15:39.950Z,64
2019-01-12T07:16:50.050Z,76
2019-01-12T07:18:00.298Z,100
2019-01-12T07:19:16.598Z,124
2019-01-12T07:20:26.728Z,152
2019-01-12T07:21:36.826Z,184
2019-01-12T07:22:46.927Z,204
2019-01-12T07:23:57.049Z,240
2019-01-12T07:25:06.810Z,268
2019-01-12T07:26:22.445Z,304
2019-01-12T07:27:32.707Z,344
2019-01-12T07:28:42.808Z,400
2019-01-12T07:29:52.915Z,424
2019-01-12T07:31:03.037Z,452
2019-01-12T07:32:13.177Z,456
2019-01-12T07:33:23.295Z,336
2019-01-12T07:34:33.423Z,228
2019-01-12T07:35:43.539Z,224
2019-01-12T07:36:53.646Z,268
2019-01-12T07:38:03.766Z,436
2019-01-12T07:39:13.882Z,556
2019-01-12T07:40:24.005Z,632
2019-01-12T07:41:34.142Z,712
2019-01-12T07:42:44.255Z,780
2019-01-12T07:43:54.362Z,824
2019-01-12T07:45:04.551Z,884
2019-01-12T07:46:14.651Z,956
2019-01-12T07:47:24.756Z,1060
2019-01-12T07:48:34.862Z,1148
2019-01-12T07:49:44.976Z,1184
2019-01-12T07:50:55.084Z,1228
2019-01-12T07:52:05.212Z,1240
2019-01-12T07:53:15.319Z,1276
2019-01-12T07:54:25.451Z,1208
2019-01-12T07:55:35.551Z,992
2019-01-12T07:56:45.730Z,884
2019-01-12T07:57:55.851Z,948
2019-01-12T07:59:05.951Z,964
2019-01-12T08:00:16.063Z,1008
2019-01-12T08:01:26.202Z,1036
2019-01-12T08:02:36.296Z,1140
2019-01-12T08:03:46.396Z,1212
2019-01-12T08:04:56.498Z,1436
2019-01-12T08:06:06.622Z,1528
2019-01-12T08:07:16.745Z,1304
2019-01-12T08:08:26.877Z,1264
2019-01-12T08:09:36.997Z,624
2019-01-12T08:10:47.117Z,372
2019-01-12T08:11:57.239Z,392
2019-01-12T08:13:07.394Z,440
2019-01-12T08:14:17.273Z,532
2019-01-12T08:15:27.383Z,536
2019-01-12T08:16:37.512Z,568
2019-01-12T08:17:47.642Z,516
2019-01-12T08:18:57.740Z,600
2019-01-12T08:20:07.901Z,896
2019-01-12T08:21:17.981Z,1040
2019-01-12T08:22:28.110Z,1324
2019-01-12T08:23:38.233Z,1596
2019-01-12T08:24:48.375Z,1820
2019-01-12T08:25:58.552Z,1832
2019-01-12T08:27:08.686Z,1792
2019-01-12T08:28:18.807Z,1932
2019-01-12T08:29:28.950Z,2132
2019-01-12T08:30:39.358Z,2004
2019-01-12T08:31:49.664Z,2012
2019-01-12T08:32:59.796Z,1924
2019-01-12T08:34:09.915Z,1716
2019-01-12T08:35:20.031Z,1548
2019-01-12T08:36:30.135Z,1392
2019-01-12T08:37:40.262Z,1476
2019-01-12T08:38:50.370Z,1448
2019-01-12T08:40:00.490Z,1460
2019-01-12T08:41:10.624Z,1472
2019-01-12T08:42:20.748Z,1484
2019-01-12T08:43:30.896Z,1020
2019-01-12T08:44:41.045Z,992
2019-01-12T08:45:51.217Z,960
2019-01-12T08:47:01.331Z,1420
2019-01-12T08:48:11.491Z,1404
2019-01-12T08:49:21.649Z,1852
2019-01-12T08:50:31.779Z,1960
2019-01-12T08:51:41.920Z,1536
2019-01-12T08:52:52.067Z,1192
2019-01-12T08:54:02.188Z,944
2019-01-12T08:55:12.313Z,1120
2019-01-12T08:56:22.465Z,1548
2019-01-12T08:57:32.595Z,2608
2019-01-12T08:58:42.361Z,3508
2019-01-12T08:59:52.505Z,2044
2019-01-12T09:01:02.637Z,1392
2019-01-12T09:02:12.764Z,1236
2019-01-12T09:03:22.877Z,1236
2019-01-12T09:04:32.990Z,1092
2019-01-12T09:05:51.112Z,1212
2019-01-12T09:07:01.238Z,1136
2019-01-12T09:08:11.381Z,980
2019-01-12T09:09:21.515Z,1000
2019-01-12T09:10:31.655Z,1112
2019-01-12T09:11:41.799Z,964
2019-01-12T09:12:51.948Z,1016
2019-01-12T09:14:02.126Z,968
2019-01-12T09:15:12.289Z,1008
2019-01-12T09:16:22.469Z,1084
2019-01-12T09:17:32.615Z,1128
2019-01-12T09:18:42.771Z,1232
2019-01-12T09:19:52.905Z,1476
2019-01-12T09:21:03.037Z,1924
2019-01-12T09:22:12.813Z,1868
2019-01-12T09:23:22.943Z,1804
2019-01-12T09:24:33.087Z,1808
2019-01-12T09:25:43.192Z,1564
2019-01-12T09:26:53.336Z,1916
2019-01-12T09:28:04.228Z,1896
2019-01-12T09:29:14.486Z,2268
2019-01-12T09:30:24.655Z,2000
2019-01-12T09:31:34.829Z,2020
2019-01-12T09:32:44.971Z,2500
2019-01-12T09:33:55.346Z,2412
2019-01-12T09:35:05.490Z,2300
2019-01-12T09:36:15.628Z,1628
2019-01-12T09:37:25.511Z,1604
2019-01-12T09:38:35.700Z,1788
2019-01-12T09:39:45.594Z,1948
2019-01-12T09:40:55.723Z,2360
2019-01-12T09:42:05.859Z,1704
2019-01-12T09:43:16.095Z,1284
2019-01-12T09:44:25.989Z,1128
2019-01-12T09:45:36.154Z,1108
2019-01-12T09:46:46.324Z,1296
2019-01-12T09:47:56.444Z,1292
2019-01-12T09:49:06.590Z,1380
2019-01-12T09:50:16.715Z,2308
2019-01-12T09:51:26.860Z,2340
2019-01-12T09:52:37.026Z,2676
2019-01-12T09:53:47.161Z,3708
2019-01-12T09:54:57.424Z,3944
2019-01-12T09:56:07.631Z,2480
2019-01-12T09:57:17.771Z,2768
2019-01-12T09:58:27.926Z,3180
2019-01-12T09:59:38.096Z,3328
2019-01-12T10:00:48.225Z,3460
2019-01-12T10:01:58.375Z,3132
2019-01-12T10:03:08.554Z,2924
2019-01-12T10:04:18.700Z,3120
2019-01-12T10:05:28.574Z,3652
2019-01-12T10:06:38.711Z,3600
2019-01-12T10:07:48.865Z,2960
2019-01-12T10:08:59.038Z,2940
2019-01-12T10:10:09.184Z,3888
2019-01-12T10:11:19.347Z,3220
2019-01-12T10:12:29.484Z,3356
2019-01-12T10:13:39.631Z,3236
2019-01-12T10:14:49.449Z,2656
2019-01-12T10:15:59.591Z,2920
2019-01-12T10:17:09.817Z,3456
2019-01-12T10:18:20.378Z,4068
2019-01-12T10:19:30.297Z,4448
2019-01-12T10:20:40.441Z,4272
2019-01-12T10:21:51.576Z,3684
2019-01-12T10:23:01.745Z,3772
2019-01-12T10:24:11.881Z,3596
2019-01-12T10:25:22.021Z,3676
2019-01-12T10:26:32.155Z,3676
2019-01-12T10:27:42.311Z,4028
2019-01-12T10:28:52.191Z,3648
2019-01-12T10:30:02.325Z,4604
2019-01-12T10:31:12.479Z,4340
2019-01-12T10:32:22.869Z,4144
2019-01-12T10:33:33.002Z,3460
2019-01-12T10:34:43.158Z,2472
2019-01-12T10:35:53.341Z,1900
2019-01-12T10:37:03.365Z,1764
2019-01-12T10:38:13.519Z,1788
2019-01-12T10:39:25.362Z,1892
2019-01-12T10:40:35.540Z,1808
2019-01-12T10:41:45.686Z,1804
2019-01-12T10:42:55.817Z,1864
2019-01-12T10:44:05.984Z,1864
2019-01-12T10:45:16.193Z,1620
2019-01-12T10:46:25.904Z,1336
2019-01-12T10:47:35.806Z,1012
2019-01-12T10:48:45.954Z,908
2019-01-12T10:49:56.084Z,712
2019-01-12T10:51:06.216Z,720
2019-01-12T10:52:16.389Z,692
2019-01-12T10:53:26.558Z,632
2019-01-12T10:54:36.690Z,612
2019-01-12T10:55:46.837Z,732
2019-01-12T10:56:56.725Z,936
2019-01-12T10:58:13.179Z,1192
2019-01-12T10:59:23.338Z,1188
2019-01-12T11:00:33.484Z,1244
2019-01-12T11:01:43.675Z,1140
2019-01-12T11:02:53.822Z,1432
2019-01-12T11:04:03.978Z,1348
2019-01-12T11:05:14.115Z,1488
2019-01-12T11:06:24.263Z,1772
2019-01-12T11:07:34.422Z,1352
2019-01-12T11:08:44.607Z,2084
2019-01-12T11:09:54.481Z,3252
2019-01-12T11:11:04.619Z,3744
2019-01-12T11:12:14.757Z,5140
2019-01-12T11:13:24.657Z,5312
2019-01-12T11:14:34.788Z,3980
2019-01-12T11:15:44.693Z,4236
2019-01-12T11:16:54.590Z,4272
2019-01-12T11:18:04.765Z,4812
2019-01-12T11:19:14.899Z,4632
2019-01-12T11:20:25.022Z,4300
2019-01-12T11:21:35.228Z,4552
2019-01-12T11:22:45.375Z,4712
2019-01-12T11:23:55.568Z,5420
2019-01-12T11:25:05.992Z,6676
2019-01-12T11:26:16.139Z,5744
2019-01-12T11:27:26.325Z,5560
2019-01-12T11:28:36.529Z,5328
2019-01-12T11:29:47.397Z,5472
2019-01-12T11:30:57.554Z,4844
2019-01-12T11:32:07.697Z,5584
2019-01-12T11:33:17.849Z,4640
2019-01-12T11:34:28.006Z,4116
2019-01-12T11:35:38.145Z,3628
2019-01-12T11:36:48.324Z,3996
2019-01-12T11:37:58.462Z,3508
2019-01-12T11:39:08.586Z,3792
2019-01-12T11:40:18.738Z,3912
2019-01-12T11:41:28.898Z,3844
2019-01-12T11:42:39.050Z,3044
2019-01-12T11:43:49.170Z,3160
2019-01-12T11:44:59.340Z,3140
2019-01-12T11:46:09.499Z,2852
2019-01-12T11:47:19.696Z,2504
2019-01-12T11:48:29.861Z,2284
2019-01-12T11:49:40.095Z,2168
2019-01-12T11:50:50.241Z,1832
2019-01-12T11:52:00.392Z,2012
2019-01-12T11:53:10.565Z,2144
2019-01-12T11:54:20.702Z,2168
2019-01-12T11:55:30.856Z,2184
2019-01-12T11:56:41.001Z,2468
2019-01-12T11:57:50.928Z,2468
2019-01-12T11:59:01.081Z,2324
2019-01-12T12:00:11.216Z,2272
2019-01-12T12:01:21.384Z,2288
2019-01-12T12:02:37.517Z,2372
2019-01-12T12:03:47.844Z,2648
2019-01-12T12:04:58.026Z,2836
2019-01-12T12:06:08.136Z,3044
2019-01-12T12:07:18.284Z,3244
2019-01-12T12:08:28.446Z,2832
2019-01-12T12:09:38.614Z,2584
2019-01-12T12:10:48.810Z,2440
2019-01-12T12:11:59.170Z,2336
2019-01-12T12:13:09.369Z,2340
2019-01-12T12:14:19.243Z,2380
2019-01-12T12:15:29.381Z,2368
2019-01-12T12:16:39.281Z,2388
2019-01-12T12:17:49.429Z,2448
2019-01-12T12:18:59.565Z,2468
2019-01-12T12:20:09.698Z,2392
2019-01-12T12:21:19.856Z,1912
2019-01-12T12:22:30.038Z,1948
2019-01-12T12:23:40.159Z,1564
2019-01-12T12:24:50.292Z,1740
2019-01-12T12:26:00.421Z,1912
2019-01-12T12:27:10.583Z,1836
2019-01-12T12:28:20.715Z,1476
2019-01-12T12:29:30.854Z,1556
2019-01-12T12:30:40.768Z,1616
2019-01-12T12:31:50.648Z,1408
2019-01-12T12:33:00.785Z,1800
2019-01-12T12:34:10.987Z,1676
2019-01-12T12:35:21.113Z,1608
2019-01-12T12:36:31.228Z,1364
2019-01-12T12:37:41.368Z,1268
2019-01-12T12:38:51.500Z,1316
2019-01-12T12:40:01.645Z,1260
2019-01-12T12:41:11.808Z,1372
2019-01-12T12:42:21.975Z,1428
2019-01-12T12:43:32.110Z,1200
2019-01-12T12:44:42.027Z,1084
2019-01-12T12:45:52.169Z,968
2019-01-12T12:47:02.397Z,996
2019-01-12T12:48:12.581Z,1036
2019-01-12T12:49:22.723Z,1056
2019-01-12T12:50:33.864Z,896
2019-01-12T12:51:44.014Z,804
2019-01-12T12:52:54.144Z,724
2019-01-12T12:54:04.304Z,780
2019-01-12T12:55:14.509Z,620
2019-01-12T12:56:24.483Z,576
2019-01-12T12:57:40.261Z,608
2019-01-12T12:58:50.405Z,684
2019-01-12T13:00:00.572Z,1160
2019-01-12T13:01:10.690Z,1180
2019-01-12T13:02:20.820Z,904
2019-01-12T13:03:31.008Z,928
2019-01-12T13:04:41.154Z,1008
2019-01-12T13:05:51.352Z,996
2019-01-12T13:07:01.490Z,1044
2019-01-12T13:08:11.681Z,1052
2019-01-12T13:09:21.826Z,960
2019-01-12T13:10:32.713Z,1040
2019-01-12T13:11:42.851Z,1024
2019-01-12T13:12:52.996Z,1012
2019-01-12T13:14:02.897Z,896
2019-01-12T13:15:13.212Z,1040
2019-01-12T13:16:23.554Z,948
2019-01-12T13:17:33.722Z,856
2019-01-12T13:18:43.888Z,784
2019-01-12T13:19:54.045Z,708
2019-01-12T13:21:04.215Z,740
2019-01-12T13:22:14.404Z,844
2019-01-12T13:23:24.745Z,768
2019-01-12T13:24:35.140Z,704
2019-01-12T13:25:45.545Z,812
2019-01-12T13:26:55.512Z,760
2019-01-12T13:28:05.667Z,776
2019-01-12T13:29:15.831Z,840
2019-01-12T13:30:26.016Z,864
2019-01-12T13:31:36.224Z,932
2019-01-12T13:32:46.382Z,1108
2019-01-12T13:33:56.520Z,1116
2019-01-12T13:35:06.663Z,1280
2019-01-12T13:36:16.803Z,1232
2019-01-12T13:37:26.974Z,1168
2019-01-12T13:38:37.101Z,1108
2019-01-12T13:39:47.275Z,1128
2019-01-12T13:40:57.444Z,1312
2019-01-12T13:42:07.624Z,1468
2019-01-12T13:43:17.766Z,1320
2019-01-12T13:44:27.918Z,1376
2019-01-12T13:45:38.110Z,1268
2019-01-12T13:46:48.280Z,1256
2019-01-12T13:47:58.446Z,1312
2019-01-12T13:49:08.648Z,1160
2019-01-12T13:50:18.790Z,1144
2019-01-12T13:51:29.251Z,1080
2019-01-12T13:52:39.454Z,1068
2019-01-12T13:53:49.632Z,940
2019-01-12T13:55:00.394Z,920
2019-01-12T13:56:10.565Z,904
2019-01-12T13:57:20.925Z,860
2019-01-12T13:58:31.083Z,828
2019-01-12T13:59:41.252Z,868
2019-01-12T14:00:51.395Z,896
2019-01-12T14:02:01.560Z,900
2019-01-12T14:03:11.116Z,908
2019-01-12T14:04:21.256Z,960
2019-01-12T14:05:31.404Z,1012
2019-01-12T14:06:41.751Z,1380
2019-01-12T14:07:58.561Z,1544
2019-01-12T14:09:08.750Z,1376
2019-01-12T14:10:18.896Z,1188
2019-01-12T14:11:30.025Z,1024
2019-01-12T14:12:40.198Z,844
2019-01-12T14:13:50.378Z,844
2019-01-12T14:15:00.525Z,912
2019-01-12T14:16:10.667Z,1084
2019-01-12T14:17:20.822Z,1088
2019-01-12T14:18:31.007Z,1224
2019-01-12T14:19:41.182Z,1128
2019-01-12T14:20:51.357Z,1012
2019-01-12T14:22:01.552Z,896
2019-01-12T14:23:11.738Z,716
2019-01-12T14:24:21.918Z,788
2019-01-12T14:25:32.149Z,680
2019-01-12T14:26:42.325Z,640
2019-01-12T14:27:59.449Z,640
2019-01-12T14:29:09.630Z,616
2019-01-12T14:30:23.009Z,640
2019-01-12T14:31:33.139Z,652
2019-01-12T14:32:43.361Z,552
2019-01-12T14:33:53.360Z,500
2019-01-12T14:35:03.254Z,460
2019-01-12T14:36:13.373Z,452
2019-01-12T14:37:23.538Z,464
2019-01-12T14:38:33.953Z,436
2019-01-12T14:39:44.229Z,464
2019-01-12T14:40:54.380Z,448
2019-01-12T14:42:04.503Z,404
2019-01-12T14:43:14.640Z,408
2019-01-12T14:44:24.796Z,448
2019-01-12T14:45:34.930Z,408
2019-01-12T14:46:45.092Z,400
2019-01-12T14:47:55.231Z,400
2019-01-12T14:49:05.390Z,368
2019-01-12T14:50:15.533Z,332
2019-01-12T14:51:25.725Z,404
2019-01-12T14:52:35.925Z,444
2019-01-12T14:53:46.123Z,332
2019-01-12T14:54:56.299Z,296
2019-01-12T14:56:06.479Z,244
2019-01-12T14:57:16.638Z,220
2019-01-12T14:58:26.885Z,232
2019-01-12T14:59:37.083Z,236
2019-01-12T15:00:47.366Z,232
2019-01-12T15:01:57.645Z,196
2019-01-12T15:03:07.518Z,176
2019-01-12T15:04:17.734Z,144
2019-01-12T15:05:28.007Z,116
2019-01-12T15:06:38.272Z,136
2019-01-12T15:07:48.539Z,112
2019-01-12T15:08:58.494Z,112
2019-01-12T15:10:08.468Z,104
2019-01-12T15:11:18.636Z,92
2019-01-12T15:12:28.829Z,68
2019-01-12T15:13:38.987Z,68
2019-01-12T15:14:49.164Z,80
2019-01-12T15:15:59.353Z,84
2019-01-12T15:17:09.554Z,76
2019-01-12T15:18:19.766Z,80
2019-01-12T15:19:29.978Z,60
2019-01-12T15:20:40.166Z,60
2019-01-12T15:21:50.323Z,60
2019-01-12T15:23:00.529Z,60
2019-01-12T15:24:10.711Z,60
2019-01-12T15:25:20.889Z,48
2019-01-12T15:26:31.091Z,40
2019-01-12T15:27:41.486Z,44
2019-01-12T15:28:51.684Z,40
2019-01-12T15:30:01.858Z,32
2019-01-12T15:31:12.247Z,28
2019-01-12T15:32:22.034Z,24
2019-01-12T15:33:33.186Z,20
2019-01-12T15:34:43.366Z,20
2019-01-12T15:35:53.583Z,24
2019-01-12T15:37:03.853Z,20
2019-01-12T15:38:14.052Z,16
2019-01-12T15:39:24.205Z,12
2019-01-12T15:40:34.377Z,12
2019-01-12T15:41:44.557Z,12
2019-01-12T15:42:54.729Z,8
2019-01-12T15:44:05.805Z,8
2019-01-12T15:45:15.966Z,8
2019-01-12T15:46:26.093Z,4
2019-01-12T15:47:36.247Z,4
2019-01-12T15:48:46.440Z,0
2019-01-12T15:49:56.579Z,4
2019-01-12T15:51:38.656Z,0
2019-01-12T15:52:49.780Z,4
2019-01-12T15:53:59.970Z,0
2019-01-12T15:55:10.206Z,0
2019-01-12T15:56:20.392Z,0
2019-01-12T15:57:30.602Z,0
2019-01-12T15:58:40.189Z,0
2019-01-12T15:59:50.380Z,0
2019-01-12T16:01:00.539Z,0
2019-01-12T16:02:11.195Z,0
2019-01-12T16:03:21.371Z,0
2019-01-12T16:04:31.579Z,0
2019-01-12T16:05:41.769Z,0
2019-01-12T16:06:51.668Z,0
2019-01-12T16:08:01.834Z,0
2019-01-12T16:09:11.997Z,0
2019-01-12T16:10:22.149Z,0
2019-01-12T16:11:32.558Z,0
2019-01-12T16:12:42.734Z,0
2019-01-12T16:13:52.889Z,0
2019-01-12T16:15:03.053Z,0
2019-01-12T16:16:13.222Z,0
2019-01-12T16:17:23.402Z,0
2019-01-12T16:18:33.622Z,0
2019-01-12T16:19:43.814Z,0
2019-01-12T16:20:54.019Z,0
2019-01-12T16:22:04.195Z,0
2019-01-12T16:23:14.351Z,0
2019-01-12T16:24:24.556Z,0
2019-01-12T16:25:35.862Z,0
2019-01-12T16:26:46.848Z,0
2019-01-12T16:27:57.087Z,0
2019-01-12T16:29:07.270Z,0
2019-01-12T16:30:17.596Z,0